Time;durP1;ratioP1;P1;durP2;ratioP2;P2;SDS_P1;SDS_P2;PMS_P1;PMS_P2;Temp;Humidity;BMP_temperature;BMP_pressure;BME280_temperature;BME280_humidity;BME280_pressure;Samples;Min_cycle;Max_cycle;Signal;HPM_P1;HPM_P2
2023/07/25 00:01:02;;;;;;;4.28;3.65;;;;;;;19.31;100.00;95744.28;5045331;28;20199;-63
2023/07/25 00:03:28;;;;;;;3.92;3.63;;;;;;;19.35;100.00;95744.66;5043947;28;20226;-63
2023/07/25 00:05:55;;;;;;;3.70;3.40;;;;;;;19.38;100.00;95745.06;5043659;28;20222;-64
2023/07/25 00:08:21;;;;;;;3.75;3.45;;;;;;;19.39;100.00;95732.47;5043281;28;20303;-64
2023/07/25 00:10:50;;;;;;;3.38;3.17;;;;;;;19.42;100.00;95715.16;5044304;28;20200;-63
2023/07/25 00:13:17;;;;;;;4.45;3.42;;;;;;;19.42;100.00;95724.03;5043784;28;20224;-64
2023/07/25 00:15:44;;;;;;;3.47;3.28;;;;;;;19.45;100.00;95731.63;5043504;28;20210;-63
2023/07/25 00:18:10;;;;;;;3.13;2.92;;;;;;;19.45;100.00;95734.28;5043584;28;20231;-63
2023/07/25 00:20:38;;;;;;;3.50;3.20;;;;;;;19.47;100.00;95724.19;5044816;28;20208;-62
2023/07/25 00:23:05;;;;;;;3.72;3.40;;;;;;;19.48;100.00;95716.97;5043600;28;20208;-63
2023/07/25 00:25:31;;;;;;;3.70;3.38;;;;;;;19.50;100.00;95710.34;5042690;28;20537;-64
2023/07/25 00:27:59;;;;;;;4.82;3.53;;;;;;;19.47;100.00;95708.09;5042615;28;20206;-63
2023/07/25 00:30:26;;;;;;;3.85;3.45;;;;;;;19.46;100.00;95708.31;5045466;28;20203;-63
2023/07/25 00:32:52;;;;;;;4.18;3.55;;;;;;;19.46;100.00;95708.31;5043676;28;20234;-64
2023/07/25 00:35:20;;;;;;;4.10;3.80;;;;;;;19.41;100.00;95700.94;5043013;28;20293;-63
2023/07/25 00:37:46;;;;;;;5.35;3.67;;;;;;;19.38;100.00;95694.13;5043363;28;20541;-64
2023/07/25 00:40:14;;;;;;;3.60;3.30;;;;;;;19.38;100.00;95701.34;5042329;28;20212;-62
2023/07/25 00:42:40;;;;;;;3.85;3.55;;;;;;;19.38;100.00;95712.88;5042582;28;20212;-62
2023/07/25 00:45:09;;;;;;;4.13;3.80;;;;;;;19.35;100.00;95709.81;5043636;28;20199;-62
2023/07/25 00:47:35;;;;;;;4.07;3.60;;;;;;;19.33;100.00;95703.88;5042485;28;20203;-63
2023/07/25 00:50:02;;;;;;;5.28;4.10;;;;;;;19.24;100.00;95697.13;5041774;28;20206;-63
2023/07/25 00:52:28;;;;;;;3.67;3.38;;;;;;;19.22;100.00;95699.22;5042643;28;20199;-63
2023/07/25 00:54:55;;;;;;;3.88;3.58;;;;;;;19.18;100.00;95704.19;5042076;28;20854;-64
2023/07/25 00:57:21;;;;;;;4.15;3.55;;;;;;;19.19;100.00;95707.72;5043323;28;20207;-63
2023/07/25 00:59:49;;;;;;;3.58;3.28;;;;;;;19.14;100.00;95710.22;5043124;28;20203;-63
2023/07/25 01:02:17;;;;;;;5.38;3.83;;;;;;;19.13;100.00;95692.50;5043457;28;20225;-64
2023/07/25 01:04:44;;;;;;;6.03;4.22;;;;;;;19.10;100.00;95700.97;5042237;28;20199;-64
2023/07/25 01:07:14;;;;;;;7.65;3.55;;;;;;;19.09;100.00;95694.81;5042544;28;20270;-64
2023/07/25 01:09:41;;;;;;;4.03;3.72;;;;;;;19.01;100.00;95694.25;5041885;28;20281;-64
2023/07/25 01:12:09;;;;;;;3.70;3.40;;;;;;;19.05;100.00;95690.09;5042372;28;20206;-64
2023/07/25 01:14:36;;;;;;;5.45;3.70;;;;;;;19.02;100.00;95677.13;5042146;28;20231;-63
2023/07/25 01:17:07;;;;;;;4.15;3.65;;;;;;;19.03;100.00;95678.75;5041661;28;20941;-63
2023/07/25 01:19:35;;;;;;;4.18;3.60;;;;;;;18.96;100.00;95669.94;5041956;28;20657;-65
2023/07/25 01:22:02;;;;;;;5.40;4.03;;;;;;;18.93;100.00;95678.44;5042085;28;20295;-65
2023/07/25 01:24:30;;;;;;;4.72;3.80;;;;;;;18.92;100.00;95679.50;5041700;28;20204;-65
2023/07/25 01:26:56;;;;;;;6.47;4.07;;;;;;;18.89;100.00;95668.16;5043564;28;20208;-63
2023/07/25 01:29:23;;;;;;;4.90;3.88;;;;;;;18.85;100.00;95669.63;5041791;28;20218;-65
2023/07/25 01:31:49;;;;;;;4.00;3.70;;;;;;;18.82;100.00;95678.09;5042848;28;20253;-64
2023/07/25 01:34:16;;;;;;;4.22;3.80;;;;;;;18.81;100.00;95670.31;5041357;28;20230;-64
2023/07/25 01:36:42;;;;;;;4.82;3.85;;;;;;;18.79;100.00;95670.50;5041804;28;20280;-65
2023/07/25 01:39:08;;;;;;;4.57;4.10;;;;;;;18.75;100.00;95660.44;5042887;28;20199;-63
2023/07/25 01:41:36;;;;;;;4.07;3.72;;;;;;;18.72;100.00;95658.19;5044094;28;20202;-61
2023/07/25 01:44:03;;;;;;;4.88;3.85;;;;;;;18.69;100.00;95654.09;5043542;28;20230;-63
2023/07/25 01:46:29;;;;;;;5.10;3.83;;;;;;;18.65;100.00;95647.53;5053666;28;20211;-63
2023/07/25 01:48:56;;;;;;;4.10;3.70;;;;;;;18.62;100.00;95636.44;5034636;28;20219;-63
2023/07/25 01:51:22;;;;;;;4.10;3.63;;;;;;;18.61;100.00;95626.75;5034773;28;20216;-64
2023/07/25 01:53:50;;;;;;;4.40;3.85;;;;;;;18.60;100.00;95617.91;5033968;28;20231;-63
2023/07/25 01:56:17;;;;;;;5.75;4.03;;;;;;;18.56;100.00;95622.06;5034336;28;20216;-63
2023/07/25 01:58:44;;;;;;;5.43;3.85;;;;;;;18.56;100.00;95622.06;5033840;28;20212;-62
2023/07/25 02:01:13;;;;;;;4.03;3.63;;;;;;;18.59;100.00;95626.16;5053206;28;20221;-63
2023/07/25 02:03:40;;;;;;;3.97;3.67;;;;;;;18.56;100.00;95624.75;5039145;28;20195;-63
2023/07/25 02:06:06;;;;;;;5.03;3.92;;;;;;;18.58;100.00;95611.94;5034193;28;20636;-63
2023/07/25 02:08:33;;;;;;;6.28;3.78;;;;;;;18.59;100.00;95623.50;5034455;28;20238;-63
2023/07/25 02:10:59;;;;;;;4.40;4.00;;;;;;;18.58;100.00;95608.44;5049096;28;20229;-63
2023/07/25 02:13:26;;;;;;;4.43;3.40;;;;;;;18.57;100.00;95607.63;5043555;28;20346;-63
2023/07/25 02:15:53;;;;;;;3.88;3.58;;;;;;;18.56;100.00;95589.94;5046898;28;20253;-63
2023/07/25 02:18:20;;;;;;;5.43;3.60;;;;;;;18.56;100.00;95592.63;5034481;28;20239;-63
2023/07/25 02:20:46;;;;;;;3.50;3.10;;;;;;;18.53;100.00;95595.72;5046420;28;20211;-64
2023/07/25 02:23:12;;;;;;;3.72;3.42;;;;;;;18.54;100.00;95602.72;5047490;28;20207;-63
2023/07/25 02:25:39;;;;;;;4.63;3.53;;;;;;;18.51;100.00;95580.91;5034177;28;20579;-62
2023/07/25 02:28:08;;;;;;;4.90;3.20;;;;;;;18.45;100.00;95568.38;5038609;28;20203;-62
2023/07/25 02:30:34;;;;;;;4.60;3.50;;;;;;;18.38;100.00;95557.72;5041984;28;20208;-63
2023/07/25 02:33:02;;;;;;;3.42;3.22;;;;;;;18.37;100.00;95548.88;5034143;28;20218;-63
2023/07/25 02:35:29;;;;;;;4.35;3.60;;;;;;;18.41;100.00;95554.59;5041862;28;20195;-63
2023/07/25 02:37:55;;;;;;;5.70;3.45;;;;;;;18.42;100.00;95561.59;5042920;28;20214;-62
2023/07/25 02:40:23;;;;;;;3.95;3.60;;;;;;;18.38;100.00;95571.09;5039271;28;20212;-63
2023/07/25 02:42:52;;;;;;;3.38;3.17;;;;;;;18.41;100.00;95562.63;5036805;28;20238;-64
2023/07/25 02:45:18;;;;;;;4.47;3.30;;;;;;;18.42;100.00;95565.06;5034086;28;20289;-63
2023/07/25 02:47:45;;;;;;;3.47;3.17;;;;;;;18.43;100.00;95565.91;5043048;28;20645;-63
2023/07/25 02:50:13;;;;;;;3.47;3.13;;;;;;;18.41;100.00;95565.31;5033773;28;20648;-63
2023/07/25 02:52:39;;;;;;;4.50;3.60;;;;;;;18.34;100.00;95561.88;5034193;28;20215;-63
2023/07/25 02:55:06;;;;;;;3.67;3.20;;;;;;;18.37;100.00;95564.09;5039170;28;20666;-63
2023/07/25 02:57:32;;;;;;;4.32;3.42;;;;;;;18.43;100.00;95576.59;5066003;28;20260;-64
2023/07/25 02:59:59;;;;;;;4.45;3.70;;;;;;;18.47;100.00;95574.31;5054617;28;20211;-61
2023/07/25 03:02:26;;;;;;;4.15;3.60;;;;;;;18.49;100.00;95554.34;5039393;28;20203;-63
2023/07/25 03:04:52;;;;;;;3.28;3.05;;;;;;;18.51;100.00;95554.13;5036845;28;20215;-64
2023/07/25 03:07:20;;;;;;;4.90;3.30;;;;;;;18.50;100.00;95557.81;5034336;28;20212;-63
2023/07/25 03:09:47;;;;;;;4.30;3.67;;;;;;;18.50;100.00;95564.00;5033841;28;20323;-63
2023/07/25 03:12:13;;;;;;;3.85;3.53;;;;;;;18.52;100.00;95580.69;5043126;28;20206;-64
2023/07/25 03:14:40;;;;;;;3.83;3.53;;;;;;;18.50;100.00;95585.41;5050539;28;20227;-64
2023/07/25 03:17:06;;;;;;;6.32;3.53;;;;;;;18.54;100.00;95586.66;5067126;28;20242;-63
2023/07/25 03:19:33;;;;;;;6.10;3.60;;;;;;;18.54;100.00;95596.53;5044602;28;20207;-64
2023/07/25 03:21:59;;;;;;;4.28;3.70;;;;;;;18.57;100.00;95601.44;5046475;28;20204;-64
2023/07/25 03:24:27;;;;;;;3.83;3.45;;;;;;;18.60;100.00;95596.47;5039713;28;20327;-63
2023/07/25 03:26:53;;;;;;;4.50;3.95;;;;;;;18.64;100.00;95596.84;5056695;28;20206;-62
2023/07/25 03:29:22;;;;;;;3.95;3.65;;;;;;;18.66;100.00;95609.00;5039127;28;20219;-64
2023/07/25 03:31:48;;;;;;;3.75;3.45;;;;;;;18.71;100.00;95602.97;5047885;28;20509;-64
2023/07/25 03:34:15;;;;;;;3.95;3.55;;;;;;;18.72;100.00;95608.13;5055860;28;20239;-63
2023/07/25 03:36:41;;;;;;;4.43;4.03;;;;;;;18.73;100.00;95612.47;5056274;28;20338;-63
2023/07/25 03:39:08;;;;;;;7.80;3.50;;;;;;;18.75;100.00;95615.72;5055881;28;20199;-63
2023/07/25 03:41:36;;;;;;;3.90;3.60;;;;;;;18.76;100.00;95606.66;5058963;28;20548;-63
2023/07/25 03:44:02;;;;;;;4.18;3.88;;;;;;;18.78;100.00;95609.94;5046656;28;20203;-63
2023/07/25 03:46:29;;;;;;;3.80;3.50;;;;;;;18.76;100.00;95617.38;5059525;28;20203;-64
2023/07/25 03:48:58;;;;;;;4.00;3.70;;;;;;;18.68;100.00;95619.50;5050915;28;20207;-64
2023/07/25 03:51:24;;;;;;;4.43;4.10;;;;;;;18.62;100.00;95615.00;5036097;28;20666;-64
2023/07/25 03:53:50;;;;;;;5.13;4.70;;;;;;;18.68;100.00;95624.84;5036092;28;20234;-63
2023/07/25 03:56:17;;;;;;;3.95;3.65;;;;;;;18.72;100.00;95623.38;5036437;28;20219;-64
2023/07/25 03:58:44;;;;;;;4.05;3.53;;;;;;;18.76;100.00;95628.09;5036271;28;20231;-63
2023/07/25 04:01:11;;;;;;;4.40;4.00;;;;;;;18.76;100.00;95633.44;5049294;28;20651;-64
2023/07/25 04:03:38;;;;;;;3.85;3.55;;;;;;;18.79;100.00;95637.53;5040134;28;20204;-63
2023/07/25 04:06:04;;;;;;;4.00;3.70;;;;;;;18.80;100.00;95648.03;5036143;28;20207;-63
2023/07/25 04:08:30;;;;;;;4.25;3.83;;;;;;;18.77;100.00;95643.13;5039018;28;20203;-63
2023/07/25 04:10:57;;;;;;;4.63;3.63;;;;;;;18.77;100.00;95637.78;5047932;28;20207;-63
2023/07/25 04:13:23;;;;;;;3.83;3.53;;;;;;;18.74;100.00;95638.19;5047161;28;20203;-63
2023/07/25 04:15:51;;;;;;;4.18;3.28;;;;;;;18.78;100.00;95650.09;5049426;28;20215;-62
2023/07/25 04:18:17;;;;;;;4.30;3.60;;;;;;;18.72;100.00;95650.16;5051034;28;20231;-62
2023/07/25 04:20:44;;;;;;;4.75;2.88;;;;;;;18.71;100.00;95660.03;5048077;28;20219;-64
2023/07/25 04:23:10;;;;;;;4.50;3.67;;;;;;;18.75;100.00;95663.13;5045600;28;20203;-63
2023/07/25 04:25:37;;;;;;;4.28;3.15;;;;;;;18.77;100.00;95667.25;5046007;28;20787;-64
2023/07/25 04:28:03;;;;;;;3.40;2.95;;;;;;;18.79;100.00;95667.81;5049576;28;20203;-63
2023/07/25 04:30:30;;;;;;;3.03;2.70;;;;;;;18.79;100.00;95672.34;5045607;28;20215;-63
2023/07/25 04:32:57;;;;;;;2.72;2.50;;;;;;;18.79;100.00;95665.16;5050304;28;20636;-63
2023/07/25 04:35:24;;;;;;;3.00;2.72;;;;;;;18.81;100.00;95667.63;5046085;28;20230;-61
2023/07/25 04:37:50;;;;;;;2.83;2.63;;;;;;;18.83;100.00;95658.31;5051549;28;20214;-63
2023/07/25 04:40:17;;;;;;;2.67;2.55;;;;;;;18.85;100.00;95661.59;5049476;28;20257;-62
2023/07/25 04:42:44;;;;;;;2.97;2.78;;;;;;;18.77;100.00;95664.56;5053532;28;20206;-63
2023/07/25 04:45:11;;;;;;;3.35;2.63;;;;;;;18.74;100.00;95673.00;5056108;28;20196;-62
2023/07/25 04:47:38;;;;;;;2.85;2.65;;;;;;;18.73;100.00;95670.56;5043814;28;20207;-61
2023/07/25 04:50:06;;;;;;;5.60;2.70;;;;;;;18.72;100.00;95668.91;5038934;28;20207;-64
2023/07/25 04:52:33;;;;;;;2.65;2.45;;;;;;;18.73;100.00;95676.75;5043872;28;20214;-62
2023/07/25 04:54:59;;;;;;;2.97;2.67;;;;;;;18.74;100.00;95683.72;5039034;28;20231;-61
2023/07/25 04:57:26;;;;;;;3.40;3.10;;;;;;;18.74;100.00;95683.72;5034871;28;20211;-65
2023/07/25 04:59:52;;;;;;;3.35;3.08;;;;;;;18.72;100.00;95680.44;5034419;28;20564;-64
2023/07/25 05:02:20;;;;;;;4.07;3.40;;;;;;;18.66;100.00;95675.97;5035187;28;20204;-64
2023/07/25 05:04:47;;;;;;;4.68;2.97;;;;;;;18.68;100.00;95673.88;5037755;28;20211;-63
2023/07/25 05:07:15;;;;;;;3.90;2.90;;;;;;;18.71;100.00;95678.78;5034452;28;20200;-63
2023/07/25 05:09:41;;;;;;;4.07;3.00;;;;;;;18.74;100.00;95689.06;5051186;28;20215;-63
2023/07/25 05:12:14;;;;;;;3.95;2.90;;;;;;;18.77;100.00;95683.31;5054424;28;20203;-62
2023/07/25 05:14:40;;;;;;;3.30;2.58;;;;;;;18.80;100.00;95688.22;5053876;28;20381;-63
2023/07/25 05:17:07;;;;;;;3.92;2.75;;;;;;;18.81;100.00;95684.50;5042817;28;20603;-64
2023/07/25 05:19:33;;;;;;;2.80;2.60;;;;;;;18.84;100.00;95673.38;5038521;28;20214;-63
2023/07/25 05:22:00;;;;;;;3.97;2.75;;;;;;;18.86;100.00;95671.28;5054498;28;20580;-64
2023/07/25 05:24:28;;;;;;;5.85;3.30;;;;;;;18.76;100.00;95680.84;5053812;28;20650;-63
2023/07/25 05:26:54;;;;;;;3.33;2.78;;;;;;;18.78;100.00;95679.56;5053693;28;20636;-63
2023/07/25 05:29:22;;;;;;;3.53;3.05;;;;;;;18.81;100.00;95672.97;5049211;28;20230;-63
2023/07/25 05:31:48;;;;;;;4.20;3.10;;;;;;;18.85;100.00;95680.34;5045731;28;20226;-63
2023/07/25 05:34:15;;;;;;;3.15;2.92;;;;;;;18.84;100.00;95684.09;5040508;28;20223;-64
2023/07/25 05:36:41;;;;;;;2.97;2.78;;;;;;;18.93;100.00;95681.09;5054000;28;20211;-63
2023/07/25 05:39:08;;;;;;;3.35;3.15;;;;;;;18.97;100.00;95679.63;5045373;28;20210;-63
2023/07/25 05:41:37;;;;;;;3.90;2.90;;;;;;;18.97;100.00;95683.13;5053807;28;20234;-63
2023/07/25 05:44:04;;;;;;;3.17;2.92;;;;;;;19.04;100.00;95667.00;5045030;28;20222;-64
2023/07/25 05:46:31;;;;;;;3.83;3.28;;;;;;;19.06;100.00;95676.47;5040947;28;20298;-63
2023/07/25 05:48:57;;;;;;;3.55;3.33;;;;;;;19.14;100.00;95672.69;5047199;28;20219;-63
2023/07/25 05:51:24;;;;;;;4.22;3.00;;;;;;;19.18;100.00;95665.84;5046559;28;20655;-63
2023/07/25 05:53:50;;;;;;;5.53;3.58;;;;;;;19.25;100.00;95672.78;5053566;28;20202;-63
2023/07/25 05:56:17;;;;;;;3.30;3.10;;;;;;;19.30;100.00;95689.06;5053713;28;20223;-63
2023/07/25 05:58:44;;;;;;;3.45;3.25;;;;;;;19.33;100.00;95699.34;5052722;28;20709;-63
2023/07/25 06:01:11;;;;;;;3.97;3.45;;;;;;;19.27;100.00;95691.34;5053816;28;20210;-63
2023/07/25 06:03:37;;;;;;;3.85;3.40;;;;;;;19.41;100.00;95684.88;5053211;28;20666;-62
2023/07/25 06:06:05;;;;;;;3.90;3.22;;;;;;;19.42;100.00;95683.78;5053845;28;20206;-63
2023/07/25 06:08:31;;;;;;;4.25;3.00;;;;;;;19.50;100.00;95686.19;5040371;28;20214;-63
2023/07/25 06:10:58;;;;;;;2.95;2.75;;;;;;;19.50;100.00;95688.88;5040482;28;20223;-63
2023/07/25 06:13:24;;;;;;;3.00;2.78;;;;;;;19.51;100.00;95693.22;5043228;28;20207;-65
2023/07/25 06:15:52;;;;;;;2.40;2.30;;;;;;;19.34;100.00;95697.47;5045632;28;20281;-64
2023/07/25 06:18:18;;;;;;;2.47;2.28;;;;;;;19.34;100.00;95692.13;5033566;28;20269;-64
2023/07/25 06:20:47;;;;;;;5.93;2.40;;;;;;;19.35;100.00;95685.69;5045962;28;20199;-64
2023/07/25 06:23:13;;;;;;;2.88;2.03;;;;;;;19.39;100.00;95681.53;5040863;28;20510;-64
2023/07/25 06:25:40;;;;;;;2.92;2.60;;;;;;;19.40;100.00;95691.22;5053676;28;20195;-64
2023/07/25 06:28:06;;;;;;;2.60;2.40;;;;;;;19.41;100.00;95687.53;5053308;28;20214;-62
2023/07/25 06:30:33;;;;;;;3.28;2.40;;;;;;;19.29;100.00;95686.59;5053514;28;20206;-62
2023/07/25 06:33:01;;;;;;;2.53;2.33;;;;;;;19.21;100.00;95685.00;5053718;28;20211;-63
2023/07/25 06:35:28;;;;;;;2.53;2.13;;;;;;;19.24;100.00;95689.09;5040115;28;20229;-63
2023/07/25 06:37:54;;;;;;;2.78;2.55;;;;;;;19.16;100.00;95686.72;5053055;28;20624;-63
2023/07/25 06:40:22;;;;;;;2.97;2.38;;;;;;;19.14;100.00;95678.06;5053425;28;20215;-63
2023/07/25 06:42:48;;;;;;;3.80;2.33;;;;;;;19.13;100.00;95681.78;5052710;28;20485;-62
2023/07/25 06:45:15;;;;;;;3.75;2.05;;;;;;;19.10;100.00;95671.47;5050995;28;20244;-62
2023/07/25 06:47:41;;;;;;;2.88;1.73;;;;;;;19.22;100.00;95677.78;5036495;28;20223;-64
2023/07/25 06:50:09;;;;;;;3.28;2.22;;;;;;;19.61;100.00;95682.78;5044303;28;20218;-63
2023/07/25 06:52:36;;;;;;;2.63;1.88;;;;;;;19.94;100.00;95668.19;5057158;28;20218;-63
2023/07/25 06:55:02;;;;;;;3.50;2.03;;;;;;;20.17;100.00;95676.34;5043888;28;20239;-64
2023/07/25 06:57:29;;;;;;;2.80;1.85;;;;;;;20.53;100.00;95673.63;5057404;28;20222;-63
2023/07/25 06:59:56;;;;;;;3.88;2.25;;;;;;;20.67;97.67;95675.06;5056975;28;20203;-63
2023/07/25 07:02:22;;;;;;;1.83;1.70;;;;;;;20.96;96.62;95672.56;5047227;28;20261;-63
2023/07/25 07:04:48;;;;;;;4.65;1.85;;;;;;;21.25;93.06;95671.72;5054490;28;20656;-64
2023/07/25 07:07:17;;;;;;;2.78;1.73;;;;;;;21.50;93.72;95672.31;5047372;28;20226;-63
2023/07/25 07:09:44;;;;;;;1.70;1.60;;;;;;;21.39;91.89;95662.38;5041269;28;20582;-63
2023/07/25 07:12:10;;;;;;;4.97;2.03;;;;;;;21.22;92.99;95661.44;5052682;28;20196;-63
2023/07/25 07:14:37;;;;;;;2.13;1.80;;;;;;;21.41;95.96;95649.50;5043060;28;20215;-63
2023/07/25 07:17:03;;;;;;;3.45;2.13;;;;;;;21.27;92.38;95651.59;5046444;28;20240;-63
2023/07/25 07:19:30;;;;;;;3.08;2.03;;;;;;;21.54;94.73;95643.06;5054150;28;20624;-62
2023/07/25 07:21:56;;;;;;;2.03;1.73;;;;;;;21.70;92.47;95643.16;5057154;28;20218;-63
2023/07/25 07:24:24;;;;;;;3.92;1.80;;;;;;;21.49;89.94;95646.44;5043481;28;20211;-64
2023/07/25 07:26:50;;;;;;;2.33;1.90;;;;;;;21.38;91.53;95644.59;5056909;28;20286;-63
2023/07/25 07:29:17;;;;;;;2.15;1.80;;;;;;;21.21;90.02;95640.97;5043003;28;20224;-63
2023/07/25 07:31:43;;;;;;;3.13;2.00;;;;;;;21.17;91.65;95643.31;5045823;28;20231;-63
2023/07/25 07:34:10;;;;;;;2.42;1.70;;;;;;;21.07;96.04;95652.97;5054401;28;20670;-63
2023/07/25 07:36:37;;;;;;;2.35;1.70;;;;;;;20.91;94.41;95645.56;5056655;28;20510;-64
2023/07/25 07:39:03;;;;;;;2.60;2.15;;;;;;;20.74;94.02;95643.56;5043198;28;20211;-63
2023/07/25 07:41:31;;;;;;;2.63;1.83;;;;;;;20.66;94.95;95640.38;5056678;28;20574;-63
2023/07/25 07:43:57;;;;;;;1.92;1.70;;;;;;;20.58;98.89;95644.19;5042380;28;20222;-63
2023/07/25 07:46:24;;;;;;;1.85;1.60;;;;;;;20.51;95.91;95637.31;5049385;28;20207;-62
2023/07/25 07:48:50;;;;;;;2.13;1.77;;;;;;;20.45;95.92;95632.84;5056564;28;20207;-64
2023/07/25 07:51:17;;;;;;;2.67;1.75;;;;;;;20.26;90.56;95642.81;5056739;28;20215;-63
2023/07/25 07:53:43;;;;;;;2.65;2.20;;;;;;;20.19;95.65;95640.19;5056311;28;20233;-63
2023/07/25 07:56:10;;;;;;;1.70;1.60;;;;;;;20.05;96.21;95648.66;5045154;28;20238;-63
2023/07/25 07:58:38;;;;;;;3.38;2.05;;;;;;;20.01;97.79;95653.66;5049405;28;20208;-63
2023/07/25 08:01:05;;;;;;;1.90;1.80;;;;;;;19.92;96.80;95662.22;5049072;28;20268;-64
2023/07/25 08:03:31;;;;;;;2.13;1.73;;;;;;;19.91;98.28;95652.53;5056166;28;20210;-63
2023/07/25 08:05:58;;;;;;;2.90;1.73;;;;;;;20.13;98.94;95651.00;5055858;28;20203;-63
2023/07/25 08:08:26;;;;;;;3.08;1.98;;;;;;;20.08;96.23;95656.25;5055537;28;20269;-63
2023/07/25 08:10:52;;;;;;;1.70;1.60;;;;;;;20.09;95.72;95650.63;5056079;28;20298;-64
2023/07/25 08:13:19;;;;;;;2.45;1.65;;;;;;;20.31;94.99;95651.81;5044122;28;20309;-63
2023/07/25 08:15:47;;;;;;;1.98;1.77;;;;;;;20.97;96.99;95647.34;5046334;28;20245;-63
2023/07/25 08:18:14;;;;;;;2.05;1.80;;;;;;;21.31;92.84;95643.88;5042733;28;20637;-63
2023/07/25 08:20:40;;;;;;;2.25;2.05;;;;;;;21.34;86.27;95644.25;5054985;28;20210;-62
2023/07/25 08:23:07;;;;;;;1.52;1.42;;;;;;;21.90;87.58;95644.63;5043462;28;20207;-62
2023/07/25 08:25:33;;;;;;;3.90;1.95;;;;;;;21.89;80.34;95645.69;5055644;28;20211;-62
2023/07/25 08:28:00;;;;;;;1.98;1.77;;;;;;;21.76;80.87;95658.34;5047498;28;20281;-63
2023/07/25 08:30:26;;;;;;;2.88;2.20;;;;;;;21.82;77.03;95657.38;5048748;28;20211;-63
2023/07/25 08:32:54;;;;;;;2.20;1.52;;;;;;;21.88;76.80;95650.25;5035615;28;20207;-62
2023/07/25 08:35:21;;;;;;;2.03;1.75;;;;;;;21.67;77.47;95646.31;5050062;28;20226;-62
2023/07/25 08:37:48;;;;;;;1.98;1.73;;;;;;;21.73;78.04;95653.44;5055330;28;20218;-63
2023/07/25 08:40:15;;;;;;;2.05;1.60;;;;;;;21.86;77.40;95663.13;5048624;28;20218;-62
2023/07/25 08:42:43;;;;;;;2.08;1.88;;;;;;;22.04;73.80;95646.84;5034943;28;20318;-63
2023/07/25 08:45:10;;;;;;;2.47;2.22;;;;;;;22.44;73.35;95654.91;5041641;28;20231;-62
2023/07/25 08:47:40;;;;;;;2.08;1.77;;;;;;;23.01;75.88;95660.25;5055152;28;20651;-63
2023/07/25 08:50:12;;;;;;;2.03;1.77;;;;;;;23.36;72.12;95668.94;5039525;28;20203;-63
2023/07/25 08:52:40;;;;;;;4.40;2.03;;;;;;;23.24;66.51;95660.09;5035084;28;20203;-63
2023/07/25 08:55:07;;;;;;;2.03;1.50;;;;;;;23.17;64.57;95659.44;5034602;28;20211;-64
2023/07/25 08:57:34;;;;;;;2.00;1.77;;;;;;;23.33;66.13;95653.22;5045017;28;20207;-63
2023/07/25 09:00:02;;;;;;;2.08;1.80;;;;;;;23.58;66.40;95658.22;5054814;28;20214;-62
2023/07/25 09:02:29;;;;;;;4.25;1.73;;;;;;;23.68;66.91;95645.69;5054972;28;20289;-62
2023/07/25 09:04:55;;;;;;;1.67;1.45;;;;;;;23.59;67.97;95644.50;5040855;28;20260;-62
2023/07/25 09:07:24;;;;;;;3.72;1.80;;;;;;;23.35;67.29;95650.31;5044685;28;20204;-63
2023/07/25 09:09:50;;;;;;;2.38;1.98;;;;;;;23.07;66.21;95643.09;5048063;28;20207;-61
2023/07/25 09:12:17;;;;;;;1.80;1.50;;;;;;;23.03;69.95;95647.34;5044681;28;20213;-62
2023/07/25 09:14:43;;;;;;;2.53;1.77;;;;;;;23.26;72.16;95647.19;5052271;28;20204;-63
2023/07/25 09:17:10;;;;;;;1.95;1.73;;;;;;;23.53;73.05;95637.38;5044078;28;20250;-63
2023/07/25 09:19:36;;;;;;;1.75;1.63;;;;;;;23.54;70.32;95636.31;5036928;28;20212;-64
2023/07/25 09:22:03;;;;;;;3.55;2.13;;;;;;;23.66;70.60;95642.44;5054653;28;20543;-63
2023/07/25 09:24:37;;;;;;;1.67;1.58;;;;;;;23.77;65.45;95649.56;5053993;28;20207;-61
2023/07/25 09:27:04;;;;;;;2.05;1.70;;;;;;;23.89;64.41;95651.34;5042801;28;20265;-61
2023/07/25 09:29:31;;;;;;;2.08;1.75;;;;;;;23.74;63.58;95650.09;5052387;28;20635;-62
2023/07/25 09:31:57;;;;;;;2.42;1.50;;;;;;;23.53;63.70;95663.53;5054118;28;20608;-63
2023/07/25 09:34:24;;;;;;;1.77;1.67;;;;;;;23.16;64.17;95655.13;5041253;28;20203;-63
2023/07/25 09:36:51;;;;;;;1.67;1.58;;;;;;;23.15;65.66;95642.69;5054269;28;20222;-61
2023/07/25 09:39:18;;;;;;;1.60;1.50;;;;;;;22.89;66.41;95662.19;5054242;28;20206;-62
2023/07/25 09:41:46;;;;;;;3.08;1.60;;;;;;;22.78;66.31;95643.16;5054341;28;20203;-63
2023/07/25 09:44:13;;;;;;;2.08;1.50;;;;;;;22.85;64.53;95642.19;5053931;28;20203;-62
2023/07/25 09:46:39;;;;;;;3.25;2.05;;;;;;;22.84;64.00;95629.78;5054322;28;20214;-64
2023/07/25 09:49:05;;;;;;;3.90;1.70;;;;;;;22.73;64.97;95637.69;5046316;28;20562;-63
2023/07/25 09:51:32;;;;;;;1.90;1.65;;;;;;;22.63;66.27;95639.38;5033757;28;20629;-62
2023/07/25 09:53:58;;;;;;;1.85;1.50;;;;;;;22.64;63.81;95635.59;5041466;28;20214;-63
2023/07/25 09:56:26;;;;;;;1.83;1.60;;;;;;;22.63;64.50;95637.50;5053046;28;20231;-64
2023/07/25 09:58:55;;;;;;;3.50;1.88;;;;;;;22.83;65.37;95633.53;5033344;28;20215;-63
2023/07/25 10:01:21;;;;;;;2.05;1.88;;;;;;;23.11;65.29;95639.66;5047160;28;20539;-63
2023/07/25 10:03:47;;;;;;;1.73;1.42;;;;;;;23.26;63.67;95641.78;5042437;28;20492;-63
2023/07/25 10:06:16;;;;;;;2.90;1.80;;;;;;;23.29;66.04;95641.28;5054715;28;20203;-62
2023/07/25 10:08:43;;;;;;;1.50;1.40;;;;;;;23.29;64.07;95646.69;5045706;28;20684;-63
2023/07/25 10:11:11;;;;;;;1.50;1.40;;;;;;;23.05;64.06;95647.94;5048993;28;20646;-63
2023/07/25 10:13:37;;;;;;;2.53;1.55;;;;;;;22.75;64.89;95651.72;5044493;28;20663;-64
2023/07/25 10:16:05;;;;;;;2.72;1.40;;;;;;;22.59;64.90;95652.50;5047166;28;20281;-63
2023/07/25 10:18:34;;;;;;;1.92;1.42;;;;;;;22.58;64.10;95655.44;5042277;28;20230;-63
2023/07/25 10:21:00;;;;;;;1.40;1.27;;;;;;;22.44;62.44;95654.91;5049323;28;20218;-63
2023/07/25 10:23:30;;;;;;;2.08;1.55;;;;;;;22.47;65.99;95649.03;5035764;28;20617;-64
2023/07/25 10:25:57;;;;;;;2.20;1.70;;;;;;;22.59;63.55;95651.69;5055069;28;20284;-61
2023/07/25 10:28:26;;;;;;;2.65;1.60;;;;;;;22.87;67.19;95654.38;5057594;28;20203;-62
2023/07/25 10:30:52;;;;;;;1.60;1.50;;;;;;;23.23;65.64;95655.78;5044856;28;20233;-63
2023/07/25 10:33:20;;;;;;;3.00;1.77;;;;;;;23.28;66.46;95658.53;5057991;28;20210;-63
2023/07/25 10:35:49;;;;;;;1.90;1.70;;;;;;;23.23;70.38;95669.25;5044231;28;20376;-62
2023/07/25 10:38:22;;;;;;;2.17;1.77;;;;;;;22.90;71.61;95669.22;5058148;28;20565;-61
2023/07/25 10:40:56;;;;;;;3.10;2.60;;;;;;;22.46;74.83;95671.63;5049676;28;20233;-62
2023/07/25 10:43:26;;;;;;;2.63;2.20;;;;;;;22.31;76.88;95674.06;5060399;28;20206;-61
2023/07/25 10:45:54;;;;;;;2.80;1.98;;;;;;;21.93;78.38;95673.81;5065973;28;20195;-63
2023/07/25 10:48:46;;;;;;;2.35;1.52;;;;;;;21.61;79.83;95676.06;5057529;28;20207;-62
2023/07/25 10:51:14;;;;;;;3.53;2.05;;;;;;;21.79;79.32;95683.97;5057795;28;20211;-62
2023/07/25 10:53:41;;;;;;;2.45;1.73;;;;;;;21.90;79.93;95690.38;5049084;28;20215;-63
2023/07/25 10:56:15;;;;;;;2.92;1.90;;;;;;;21.56;81.26;95711.72;5045321;28;20250;-63
2023/07/25 10:59:01;;;;;;;2.58;1.98;;;;;;;21.30;82.09;95717.53;5044344;28;20210;-63
2023/07/25 11:01:34;;;;;;;2.38;1.45;;;;;;;21.19;82.81;95702.19;5040747;28;20214;-63
2023/07/25 11:04:30;;;;;;;3.03;2.03;;;;;;;21.10;87.21;95711.63;5049072;28;20290;-63
2023/07/25 11:06:58;;;;;;;5.18;2.05;;;;;;;21.17;86.25;95707.00;5046726;28;20205;-62
2023/07/25 11:09:25;;;;;;;2.40;2.17;;;;;;;21.04;87.45;95705.31;5058221;28;20294;-62
2023/07/25 11:11:54;;;;;;;4.30;2.63;;;;;;;21.17;86.86;95696.25;5066169;28;20196;-63
2023/07/25 11:14:21;;;;;;;3.67;2.13;;;;;;;21.28;88.06;95690.06;5058183;28;20293;-64
2023/07/25 11:16:50;;;;;;;2.72;2.05;;;;;;;21.60;88.55;95694.06;5076040;28;20233;-61
2023/07/25 11:19:18;;;;;;;6.70;2.35;;;;;;;21.63;86.99;95690.06;5060363;28;20192;-63
2023/07/25 11:21:46;;;;;;;7.90;3.35;;;;;;;21.65;84.29;95687.94;5062005;28;20207;-63
2023/07/25 11:24:14;;;;;;;3.08;1.98;;;;;;;21.56;85.03;95692.06;5075300;28;20206;-62
2023/07/25 11:26:43;;;;;;;2.17;1.83;;;;;;;21.46;82.94;95681.91;5075364;28;20198;-63
2023/07/25 11:29:11;;;;;;;1.70;1.60;;;;;;;21.38;83.96;95679.56;5058984;28;20203;-64